Portada
METAR-TAF:

METAR-TAF

Aeroports :

Plantation Airpark

Sylvania, Geòrgia, Estats Units d'Amèrica

latitud: 32-38-43N, longitud: 081-35-47W, altitud: 57 m

Observació

L'informe es va fer fa 28 minuts, a les 23:15 UTC
Vent 3 kt del Est/Nord-Est
Temperatura 4°C
Humitat 65%
Pressió 1027 hPa
Visibilitat: 16.1 km
Cel clar

METAR: KJYL 132315Z AUTO 06003KT 10SM CLR 04/M02 A3032 RMK AO2 T00431024

Hora: 18:43 (23:43 UTC)


TAF: manca

Observacions i pronòstics meteorològics de més de 4000 aeroports (METAR i TAF).

Les estacions disponibles són els punts grocs i vermells al mapa.

Posi el ratolí al punt desitjat per veure el nom de l'estació.

Feu clic per veure les observacions i els pronòstics meteorològics.

Per canviar el mapa: feu clic els botons verds amb una creu de color negre per apropar; al botó verd amb un guió per allunyar la imatge; o en les fletxes verdes per a mapes adjacents.


METAR-TAF: